createdAt,value
2022-12-26T00:00:00.390Z,101010
2022-12-26T00:05:00.485Z,100990
2022-12-26T00:10:00.399Z,101010
2022-12-26T00:15:00.417Z,101000
2022-12-26T00:20:00.508Z,101000
2022-12-26T00:25:00.416Z,101010
2022-12-26T00:30:00.464Z,101020
2022-12-26T00:35:00.396Z,101030
2022-12-26T00:40:00.416Z,101030
2022-12-26T00:45:00.397Z,101040
2022-12-26T00:50:12.411Z,101040
2022-12-26T00:55:00.407Z,101040
2022-12-26T01:00:00.453Z,101040
2022-12-26T01:05:00.390Z,101050
2022-12-26T01:10:00.370Z,101040
2022-12-26T01:15:00.473Z,101040
2022-12-26T01:20:00.506Z,101050
2022-12-26T01:25:00.375Z,101050
2022-12-26T01:30:00.467Z,101040
2022-12-26T01:35:00.449Z,101040
2022-12-26T01:40:00.525Z,101050
2022-12-26T01:45:20.271Z,101040
2022-12-26T01:50:00.728Z,101040
2022-12-26T01:55:01.944Z,101050
2022-12-26T02:00:02.524Z,101040
2022-12-26T02:05:00.403Z,101060
2022-12-26T02:10:02.003Z,101050
2022-12-26T02:15:03.662Z,101040
2022-12-26T02:20:01.419Z,101040
2022-12-26T02:25:20.276Z,101040
2022-12-26T02:30:05.928Z,101040
2022-12-26T02:35:14.075Z,101040
2022-12-26T02:40:20.270Z,101040
2022-12-26T02:45:13.747Z,101050
2022-12-26T02:50:10.398Z,101050
2022-12-26T02:55:08.932Z,101040
2022-12-26T03:00:14.337Z,101030
2022-12-26T03:05:02.565Z,101030
2022-12-26T03:10:04.469Z,101040
2022-12-26T03:15:03.154Z,101040
2022-12-26T03:20:05.582Z,101050
2022-12-26T03:25:04.574Z,101050
2022-12-26T03:30:00.405Z,101060
2022-12-26T03:35:00.500Z,101060
2022-12-26T03:40:17.583Z,101040
2022-12-26T03:45:16.754Z,101040
2022-12-26T03:50:10.737Z,101060
2022-12-26T03:55:10.473Z,101050
2022-12-26T04:00:07.483Z,101040
2022-12-26T04:05:04.465Z,101050
2022-12-26T04:10:07.926Z,101060
2022-12-26T04:15:06.293Z,101040
2022-12-26T04:20:13.471Z,101050
2022-12-26T04:25:12.901Z,101070
2022-12-26T04:30:00.465Z,101090
2022-12-26T04:35:11.662Z,101090
2022-12-26T04:40:02.075Z,101070
2022-12-26T04:45:02.057Z,101080
2022-12-26T04:50:05.500Z,101070
2022-12-26T04:55:00.370Z,101060
2022-12-26T05:00:00.480Z,101050
2022-12-26T05:05:00.450Z,101040
2022-12-26T05:10:01.240Z,101040
2022-12-26T05:15:00.373Z,101030
2022-12-26T05:20:00.387Z,101040
2022-12-26T05:25:00.534Z,101040
2022-12-26T05:30:00.517Z,101030
2022-12-26T05:35:00.361Z,101050
2022-12-26T05:40:00.916Z,101060
2022-12-26T05:45:00.383Z,101070
2022-12-26T05:50:00.766Z,101060
2022-12-26T05:55:00.401Z,101050
2022-12-26T06:00:00.456Z,101040
2022-12-26T06:05:00.419Z,101040
2022-12-26T06:10:00.756Z,101050
2022-12-26T06:15:00.740Z,101050
2022-12-26T06:20:00.405Z,101050
2022-12-26T06:25:00.445Z,101050
2022-12-26T06:30:00.451Z,101040
2022-12-26T06:35:00.399Z,101040
2022-12-26T06:40:00.467Z,101050
2022-12-26T06:45:00.401Z,101050
2022-12-26T06:50:00.717Z,101070
2022-12-26T06:55:00.417Z,101070
2022-12-26T07:00:00.665Z,101060
2022-12-26T07:05:00.472Z,101070
2022-12-26T07:10:00.358Z,101080
2022-12-26T07:15:01.918Z,101090
2022-12-26T07:20:00.357Z,101080
2022-12-26T07:25:00.363Z,101090
2022-12-26T07:30:00.568Z,101080
2022-12-26T07:35:00.394Z,101060
2022-12-26T07:40:00.396Z,101070
2022-12-26T07:45:00.368Z,101060
2022-12-26T07:50:00.380Z,101070
2022-12-26T07:55:00.400Z,101080
2022-12-26T08:00:00.503Z,101090
2022-12-26T08:05:00.422Z,101090
2022-12-26T08:10:00.376Z,101090
2022-12-26T08:15:00.589Z,101090
2022-12-26T08:20:00.439Z,101070
2022-12-26T08:25:00.389Z,101080
2022-12-26T08:30:00.557Z,101090
2022-12-26T08:35:00.530Z,101090
2022-12-26T08:40:00.399Z,101110
2022-12-26T08:45:00.429Z,101110
2022-12-26T08:50:00.367Z,101110
2022-12-26T08:55:00.742Z,101120
2022-12-26T09:00:00.743Z,101130
2022-12-26T09:05:00.456Z,101130
2022-12-26T09:10:00.368Z,101120
2022-12-26T09:15:00.416Z,101120
2022-12-26T09:20:00.516Z,101140
2022-12-26T09:25:00.381Z,101150
2022-12-26T09:30:00.494Z,101150
2022-12-26T09:35:00.577Z,101180
2022-12-26T09:40:00.444Z,101190
2022-12-26T09:45:11.379Z,101210
2022-12-26T09:50:10.440Z,101230
2022-12-26T09:55:05.869Z,101230
2022-12-26T10:00:04.475Z,101250
2022-12-26T10:05:00.673Z,101250
2022-12-26T10:10:09.631Z,101270
2022-12-26T10:15:06.054Z,101270
2022-12-26T10:20:16.884Z,101270
2022-12-26T10:25:03.337Z,101300
2022-12-26T10:30:05.348Z,101330
2022-12-26T10:35:20.271Z,101330
2022-12-26T10:40:11.385Z,101340
2022-12-26T10:45:01.168Z,101340
2022-12-26T10:50:01.937Z,101360
2022-12-26T10:55:29.095Z,101350
2022-12-26T11:00:03.832Z,101370
2022-12-26T11:05:27.033Z,101380
2022-12-26T11:10:03.393Z,101390
2022-12-26T11:15:05.426Z,101410
2022-12-26T11:20:10.455Z,101420
2022-12-26T11:25:11.381Z,101430
2022-12-26T11:30:10.334Z,101440
2022-12-26T11:35:01.848Z,101440
2022-12-26T11:40:00.683Z,101440
2022-12-26T11:45:10.571Z,101450
2022-12-26T11:50:03.089Z,101450
2022-12-26T11:55:00.467Z,101450
2022-12-26T12:00:15.098Z,101450
2022-12-26T12:05:12.566Z,101460
2022-12-26T12:10:20.330Z,101450
2022-12-26T12:15:20.293Z,101470
2022-12-26T12:20:11.353Z,101470
2022-12-26T12:25:04.698Z,101470
2022-12-26T12:30:09.602Z,101470
2022-12-26T12:35:17.854Z,101480
2022-12-26T12:40:20.341Z,101480
2022-12-26T12:45:20.279Z,101480
2022-12-26T12:50:13.671Z,101490
2022-12-26T12:55:16.469Z,101490
2022-12-26T13:00:10.356Z,101490
2022-12-26T13:05:13.749Z,101490
2022-12-26T13:10:11.091Z,101480
2022-12-26T13:15:07.505Z,101500
2022-12-26T13:20:14.247Z,101500
2022-12-26T13:25:01.549Z,101510
2022-12-26T13:30:01.865Z,101510
2022-12-26T13:35:01.602Z,101510
2022-12-26T13:40:05.280Z,101520
2022-12-26T13:45:20.373Z,101530
2022-12-26T13:50:20.338Z,101540
2022-12-26T13:55:03.639Z,101540
2022-12-26T14:00:04.532Z,101550
2022-12-26T14:05:18.703Z,101560
2022-12-26T14:10:15.877Z,101560
2022-12-26T14:15:02.391Z,101580
2022-12-26T14:20:11.377Z,101590
2022-12-26T14:25:20.385Z,101590
2022-12-26T14:30:20.267Z,101600
2022-12-26T14:35:18.667Z,101600
2022-12-26T14:40:11.354Z,101620
2022-12-26T14:45:03.070Z,101620
2022-12-26T14:50:20.277Z,101630
2022-12-26T14:55:20.325Z,101640
2022-12-26T15:00:20.279Z,101650
2022-12-26T15:05:09.853Z,101650
2022-12-26T15:10:20.104Z,101660
2022-12-26T15:15:20.275Z,101680
2022-12-26T15:20:03.727Z,101680
2022-12-26T15:25:20.852Z,101680
2022-12-26T15:30:14.608Z,101690
2022-12-26T15:35:12.675Z,101680
2022-12-26T15:40:13.430Z,101700
2022-12-26T15:45:10.347Z,101710
2022-12-26T15:50:10.344Z,101710
2022-12-26T15:55:10.313Z,101710
2022-12-26T16:00:10.457Z,101720
2022-12-26T16:05:17.850Z,101730
2022-12-26T16:10:00.741Z,101730
2022-12-26T16:15:03.721Z,101740
2022-12-26T16:20:19.554Z,101740
2022-12-26T16:25:01.289Z,101740
2022-12-26T16:30:09.713Z,101750
2022-12-26T16:35:01.036Z,101760
2022-12-26T16:40:05.451Z,101770
2022-12-26T16:45:00.647Z,101760
2022-12-26T16:50:03.438Z,101770
2022-12-26T16:55:20.281Z,101780
2022-12-26T17:00:00.779Z,101780
2022-12-26T17:05:05.476Z,101790
2022-12-26T17:10:00.682Z,101800
2022-12-26T17:15:01.474Z,101790
2022-12-26T17:20:20.284Z,101790
2022-12-26T17:25:20.267Z,101790
2022-12-26T17:30:20.287Z,101810
2022-12-26T17:35:05.667Z,101810
2022-12-26T17:40:05.750Z,101820
2022-12-26T17:45:00.440Z,101830
2022-12-26T17:50:00.400Z,101830
2022-12-26T17:55:03.014Z,101820
2022-12-26T18:00:01.365Z,101830
2022-12-26T18:05:00.383Z,101840
2022-12-26T18:10:00.740Z,101850
2022-12-26T18:15:02.347Z,101840
2022-12-26T18:20:02.000Z,101850
2022-12-26T18:25:00.436Z,101850
2022-12-26T18:30:00.787Z,101870
2022-12-26T18:35:00.497Z,101870
2022-12-26T18:40:00.754Z,101880
2022-12-26T18:45:00.363Z,101880
2022-12-26T18:50:00.435Z,101890
2022-12-26T18:55:00.376Z,101900
2022-12-26T19:00:02.784Z,101910
2022-12-26T19:05:00.402Z,101920
2022-12-26T19:10:00.469Z,101920
2022-12-26T19:15:00.413Z,101930
2022-12-26T19:20:00.353Z,101930
2022-12-26T19:25:00.399Z,101930
2022-12-26T19:30:00.515Z,101930
2022-12-26T19:35:00.365Z,101950
2022-12-26T19:40:00.559Z,101940
2022-12-26T19:45:00.655Z,101950
2022-12-26T19:50:01.549Z,101950
2022-12-26T19:55:00.382Z,101950
2022-12-26T20:00:00.502Z,101960
2022-12-26T20:05:00.391Z,101950
2022-12-26T20:10:00.478Z,101960
2022-12-26T20:15:00.405Z,101950
2022-12-26T20:20:00.459Z,101950
2022-12-26T20:25:00.463Z,101950
2022-12-26T20:30:02.278Z,101960
2022-12-26T20:35:00.379Z,101970
2022-12-26T20:40:00.499Z,101970
2022-12-26T20:45:00.412Z,101970
2022-12-26T20:50:00.474Z,101970
2022-12-26T20:55:00.402Z,101980
2022-12-26T21:00:00.472Z,101980
2022-12-26T21:05:00.365Z,101990
2022-12-26T21:10:00.458Z,101990
2022-12-26T21:15:00.377Z,102000
2022-12-26T21:20:00.393Z,102010
2022-12-26T21:25:00.436Z,102020
2022-12-26T21:30:00.541Z,102010
2022-12-26T21:35:00.462Z,102020
2022-12-26T21:40:01.044Z,102020
2022-12-26T21:45:00.421Z,102030
2022-12-26T21:50:00.400Z,102030
2022-12-26T21:55:00.380Z,102040
2022-12-26T22:00:00.441Z,102050
2022-12-26T22:05:00.586Z,102050
2022-12-26T22:10:01.579Z,102060
2022-12-26T22:15:00.409Z,102060
2022-12-26T22:20:00.444Z,102070
2022-12-26T22:25:00.365Z,102070
2022-12-26T22:30:00.367Z,102080
2022-12-26T22:35:00.541Z,102080
2022-12-26T22:40:00.601Z,102090
2022-12-26T22:45:00.468Z,102090
2022-12-26T22:50:00.388Z,102090
2022-12-26T22:55:00.425Z,102100
2022-12-26T23:00:09.124Z,102110
2022-12-26T23:05:00.833Z,102110
2022-12-26T23:10:00.622Z,102110
2022-12-26T23:15:00.607Z,102110
2022-12-26T23:20:01.255Z,102110
2022-12-26T23:25:00.611Z,102120
2022-12-26T23:30:00.476Z,102120
2022-12-26T23:35:00.468Z,102120
2022-12-26T23:40:00.812Z,102120
2022-12-26T23:45:00.520Z,102110
2022-12-26T23:50:00.428Z,102120
2022-12-26T23:55:00.643Z,102120
